Terminal Aerodrome Forecast
Issued by NWS

Home | Current Version | Previous Version | Text Only | Print | Product List | Glossary On
Versions: 1 2 3 4 5 6 7 8 9 10 11 12 13 14 15 16 17 18 19 20 21 22 23
000
FTUS41 KALY 181122
TAFPSF
TAF
KPSF 181122Z 1812/1912 15008KT 6SM -SHRA BR BKN010 OVC020
      TEMPO 1812/1814 2SM +SHRA BR OVC005
     FM181600 18009KT P6SM VCSH SCT008 OVC012 PROB30 1821/1902
      VRB15G30KT 1SM +TSRA OVC010CB
     FM190200 19007KT P6SM BKN015
     FM190700 22004KT 2SM BR BKN003=

USA.gov is the U.S. government's official web portal to all federal, state and local government web resources and services.